Hauptseite
METAR-TAF:

METAR-TAF

Flughäfen :

Bar Harbor, Maine, Vereinigte Staaten

Breite: 44-27N, Länge: 068-22W, Höhe: 26 m

Beobachtung

Neuester Wetterbericht von vor 13 Minuten, um 11:56 UTC
Wind 14 kt aus West/Nordwest, Böen bis zu 25 kt
Temperatur -5°C
Luftfeuchtigkeit 63%
Luftdruck 1009 hPa
Sichtweite: 16.1 km
Leicht bewölkt in der Höhe von 3600 ft

METAR: KBHB 291156Z AUTO 29014G25KT 10SM FEW036 M05/M11 A2981 RMK AO2 SLP098 60018 7//// T10501111 10083 21050 52091 FZRANO

Zeit: 07:09 (12:09 UTC)

Prognose

Neuester Wetterbericht von vor 31 Minuten, um 11:38 UTC
Gültige Prognose vom 29 um 12 UTC bis 01 um 12 UTC
Wind 12 kt aus West/Nordwest, Böen bis zu 29 kt
Sichtweite: 10 km
Leicht bewölkt in der Höhe von 25000 ft
Ab 01 um 0900 UTC
Wind 13 kt aus West/Nordwest, Böen bis zu 23 kt
Sichtweite: 10 km
Himmel klar

TAF: KBHB 291138Z 2912/0112 29012G29KT P6SM FEW250 FM010900 29013G23KT P6SM SKC

Wetterbeobachtungen und Prognosen von mehr als 4000 Flughäfen (METAR und TAF Bericht).

Die verfügbaren Stationen werden durch gelbe und rote Markierungen auf der Karte dargestellt.

Führen Sie die Maus auf sie, um den Namen der Station zu sehen.

Darauf klicken, um die Beobachtung von Wetterbeobachtungen und Prognosen zu sehen.

Um die Karte zu ändern : klicken Sie auf den grünen Tasten mit einem schwarzen Kreuz Zum Vergrößern, auf den grünen Button mit einem Gedankenstrich zu verkleinern, oder auf die grünen Pfeile für benachbarte Karten.


METAR-TAF: